createdAt,value
2018-12-17T06:15:39.644Z,8.47
2018-12-17T06:18:08.939Z,7.80
2018-12-17T06:20:38.297Z,7.97
2018-12-17T06:23:12.311Z,7.73
2018-12-17T06:25:41.705Z,7.03
2018-12-17T06:28:12.095Z,7.70
2018-12-17T06:30:41.525Z,8.80
2018-12-17T06:33:15.601Z,8.30
2018-12-17T06:35:43.018Z,7.83
2018-12-17T06:38:12.510Z,8.80
2018-12-17T06:40:42.123Z,7.20
2018-12-17T06:43:11.798Z,6.57
2018-12-17T06:45:41.152Z,6.97
2018-12-17T06:48:16.829Z,6.60
2018-12-17T06:50:41.898Z,6.40
2018-12-17T06:53:11.232Z,7.03
2018-12-17T06:55:40.685Z,6.93
2018-12-17T06:58:10.606Z,6.50
2018-12-17T07:00:39.949Z,6.33
2018-12-17T07:03:09.223Z,6.10
2018-12-17T07:05:38.530Z,6.90
2018-12-17T07:08:07.917Z,6.87
2018-12-17T07:10:37.298Z,6.40
2018-12-17T07:13:06.615Z,6.33
2018-12-17T07:15:36.001Z,7.23
2018-12-17T07:18:06.300Z,7.20
2018-12-17T07:20:35.669Z,7.63
2018-12-17T07:23:05.101Z,7.27
2018-12-17T07:25:35.259Z,8.47
2018-12-17T07:28:05.129Z,8.30
2018-12-17T07:30:34.783Z,7.97
2018-12-17T07:33:04.449Z,8.87
2018-12-17T07:35:34.477Z,10.50
2018-12-17T07:38:03.815Z,7.50
2018-12-17T07:40:33.215Z,7.27
2018-12-17T07:43:02.610Z,7.43
2018-12-17T07:45:33.488Z,7.00
2018-12-17T07:48:03.187Z,7.40
2018-12-17T07:50:32.943Z,8.37
2018-12-17T07:53:02.614Z,8.03
2018-12-17T07:55:32.125Z,8.23
2018-12-17T07:58:01.464Z,7.33
2018-12-17T08:00:31.672Z,7.63
2018-12-17T08:03:01.240Z,7.93
2018-12-17T08:05:32.134Z,7.47
2018-12-17T08:08:01.452Z,7.83
2018-12-17T08:10:30.815Z,7.30
2018-12-17T08:13:00.340Z,8.43
2018-12-17T08:15:29.682Z,7.73
2018-12-17T08:18:15.844Z,7.53
2018-12-17T08:20:45.175Z,7.10
2018-12-17T08:23:14.729Z,7.43
2018-12-17T08:25:44.123Z,7.30
2018-12-17T08:28:13.585Z,7.43
2018-12-17T08:30:42.903Z,7.33
2018-12-17T08:33:12.343Z,7.33
2018-12-17T08:35:42.353Z,7.53
2018-12-17T08:38:11.683Z,8.50
2018-12-17T08:40:40.997Z,8.10
2018-12-17T08:43:10.281Z,7.77
2018-12-17T08:45:39.678Z,7.47
2018-12-17T08:48:09.027Z,8.37
2018-12-17T08:50:38.476Z,7.03
2018-12-17T08:53:07.816Z,7.30
2018-12-17T08:55:37.116Z,7.27
2018-12-17T08:58:06.804Z,7.40
2018-12-17T09:00:36.099Z,6.70
2018-12-17T09:03:05.520Z,6.93
2018-12-17T09:05:34.946Z,7.47
2018-12-17T09:08:04.329Z,7.70
2018-12-17T09:10:33.659Z,6.80
2018-12-17T09:13:02.929Z,7.23
2018-12-17T09:15:32.331Z,6.80
2018-12-17T09:18:01.569Z,7.00
2018-12-17T09:20:31.102Z,7.70
2018-12-17T09:23:00.380Z,6.43
2018-12-17T09:25:29.709Z,6.73
2018-12-17T09:27:59.149Z,6.93
2018-12-17T09:30:28.577Z,6.53
2018-12-17T09:32:57.890Z,7.60
2018-12-17T09:35:27.303Z,6.90
2018-12-17T09:37:56.783Z,6.67
2018-12-17T09:40:26.139Z,6.87
2018-12-17T09:42:55.561Z,6.90
2018-12-17T09:45:24.862Z,7.27
2018-12-17T09:47:54.367Z,6.90
2018-12-17T09:50:25.164Z,6.83
2018-12-17T09:52:55.182Z,6.17
2018-12-17T09:55:24.486Z,6.73
2018-12-17T09:57:53.782Z,6.90
2018-12-17T10:00:25.614Z,6.10
2018-12-17T10:02:54.432Z,5.63
2018-12-17T10:05:23.838Z,6.50
2018-12-17T10:07:53.221Z,7.33
2018-12-17T10:10:22.584Z,6.80
2018-12-17T10:12:51.889Z,6.00
2018-12-17T10:15:23.078Z,6.17
2018-12-17T10:17:52.386Z,5.97
2018-12-17T10:20:21.788Z,6.87
2018-12-17T10:22:51.915Z,6.77
2018-12-17T10:25:22.046Z,7.37
2018-12-17T10:27:52.140Z,6.87
2018-12-17T10:30:21.814Z,6.90
2018-12-17T10:32:51.520Z,6.37
2018-12-17T10:35:20.932Z,7.03
2018-12-17T10:37:50.928Z,6.20
2018-12-17T10:40:20.707Z,5.73
2018-12-17T10:42:50.143Z,5.70
2018-12-17T10:45:19.545Z,6.00
2018-12-17T10:47:49.807Z,6.67
2018-12-17T10:50:19.539Z,6.13
2018-12-17T10:52:48.917Z,6.23
2018-12-17T10:55:18.897Z,6.20
2018-12-17T10:57:48.406Z,5.87
2018-12-17T11:00:23.050Z,5.50
2018-12-17T11:02:54.768Z,5.67
2018-12-17T11:05:24.980Z,5.63
2018-12-17T11:07:55.075Z,5.90
2018-12-17T11:10:24.531Z,6.07
2018-12-17T11:12:53.967Z,5.60
2018-12-17T11:15:24.077Z,5.53
2018-12-17T11:17:53.438Z,5.43
2018-12-17T11:20:25.051Z,5.27
2018-12-17T11:22:55.033Z,6.00
2018-12-17T11:25:24.648Z,6.50
2018-12-17T11:27:54.261Z,5.83
2018-12-17T11:30:23.588Z,5.93
2018-12-17T11:32:53.812Z,5.83
2018-12-17T11:35:23.243Z,6.20
2018-12-17T11:37:53.313Z,5.90
2018-12-17T11:40:23.054Z,5.80
2018-12-17T11:42:52.380Z,5.87
2018-12-17T11:45:22.572Z,6.03
2018-12-17T11:47:52.386Z,5.90
2018-12-17T11:50:21.826Z,6.00
2018-12-17T11:52:51.101Z,6.03
2018-12-17T11:55:21.435Z,5.30
2018-12-17T11:58:25.525Z,5.37
2018-12-17T12:01:03.876Z,6.10
2018-12-17T12:03:36.412Z,5.57
2018-12-17T12:06:13.630Z,5.83
2018-12-17T12:08:38.501Z,6.57
2018-12-17T12:11:08.084Z,5.63
2018-12-17T12:13:38.661Z,4.93
2018-12-17T12:16:07.997Z,5.53
2018-12-17T12:18:37.311Z,5.37
2018-12-17T12:21:06.883Z,5.90
2018-12-17T12:23:36.797Z,5.47
2018-12-17T12:26:06.493Z,5.70
2018-12-17T12:28:35.769Z,5.70
2018-12-17T12:31:06.088Z,5.50
2018-12-17T12:33:35.419Z,5.27
2018-12-17T12:36:04.854Z,5.03
2018-12-17T12:38:35.823Z,4.87
2018-12-17T12:41:05.351Z,4.50
2018-12-17T12:43:35.673Z,4.20
2018-12-17T12:46:05.415Z,4.50
2018-12-17T12:48:34.773Z,4.70
2018-12-17T12:51:04.963Z,4.47
2018-12-17T12:53:34.895Z,4.77
2018-12-17T12:56:04.636Z,4.70
2018-12-17T12:58:34.355Z,4.07
2018-12-17T13:01:07.611Z,4.60
2018-12-17T13:03:35.644Z,4.37
2018-12-17T13:06:05.444Z,4.60
2018-12-17T13:08:35.111Z,4.33
2018-12-17T13:11:04.444Z,4.40
2018-12-17T13:13:34.598Z,3.73
2018-12-17T13:16:03.915Z,3.40
2018-12-17T13:18:34.999Z,4.20
2018-12-17T13:21:04.668Z,4.27
2018-12-17T13:23:34.035Z,4.17
2018-12-17T13:26:03.578Z,4.40
2018-12-17T13:28:34.687Z,4.20
2018-12-17T13:31:04.288Z,4.27
2018-12-17T13:33:33.625Z,4.47
2018-12-17T13:36:04.327Z,4.40
2018-12-17T13:38:33.673Z,4.87
2018-12-17T13:41:05.907Z,4.40
2018-12-17T13:43:35.262Z,4.70
2018-12-17T13:46:04.698Z,5.00
2018-12-17T13:48:34.019Z,4.60
2018-12-17T13:51:08.457Z,5.30
2018-12-17T13:53:37.838Z,4.97
2018-12-17T13:56:07.168Z,5.53
2018-12-17T13:58:36.607Z,5.10
2018-12-17T14:01:06.102Z,4.73
2018-12-17T14:03:36.727Z,5.40
2018-12-17T14:06:06.166Z,5.03
2018-12-17T14:08:35.548Z,4.60
2018-12-17T14:11:05.118Z,4.37
2018-12-17T14:13:34.653Z,4.40
2018-12-17T14:16:09.256Z,4.33
2018-12-17T14:18:43.802Z,4.50
2018-12-17T14:21:18.417Z,4.43
2018-12-17T14:23:47.811Z,4.43
2018-12-17T14:26:17.269Z,4.10
2018-12-17T14:28:46.679Z,4.20
2018-12-17T14:31:15.989Z,4.30
2018-12-17T14:33:45.292Z,3.73
2018-12-17T14:36:14.623Z,4.73
2018-12-17T14:38:44.129Z,4.90
2018-12-17T14:41:13.458Z,4.53
2018-12-17T14:43:42.840Z,4.43
2018-12-17T14:46:20.590Z,4.20
2018-12-17T14:48:54.602Z,5.00
2018-12-17T14:51:24.104Z,4.83
2018-12-17T14:53:53.463Z,5.00
2018-12-17T14:56:22.777Z,4.90
2018-12-17T14:58:52.058Z,4.70
2018-12-17T15:01:21.518Z,4.90
2018-12-17T15:03:50.839Z,5.37
2018-12-17T15:06:20.134Z,5.10
2018-12-17T15:08:49.478Z,4.93
2018-12-17T15:11:18.783Z,5.07
2018-12-17T15:13:48.141Z,5.10
2018-12-17T15:16:17.488Z,5.00
2018-12-17T15:18:46.855Z,4.30
2018-12-17T15:21:16.175Z,4.73
2018-12-17T15:23:45.754Z,4.50
2018-12-17T15:26:15.271Z,4.80
2018-12-17T15:28:44.686Z,4.47
2018-12-17T15:31:13.977Z,5.10
2018-12-17T15:33:43.285Z,4.97
2018-12-17T15:36:12.593Z,5.50
2018-12-17T15:38:41.949Z,4.83
2018-12-17T15:41:11.417Z,5.33
2018-12-17T15:43:40.815Z,5.10
2018-12-17T15:46:10.351Z,5.00
2018-12-17T15:48:39.716Z,5.30
2018-12-17T15:51:09.109Z,4.77
2018-12-17T15:53:38.487Z,4.80
2018-12-17T15:56:07.892Z,4.77
2018-12-17T15:58:37.344Z,5.10
2018-12-17T16:01:06.743Z,4.93
2018-12-17T16:03:36.036Z,5.23
2018-12-17T16:06:05.461Z,4.67
2018-12-17T16:08:34.805Z,4.53
2018-12-17T16:11:04.106Z,4.63
2018-12-17T16:13:33.424Z,5.00
2018-12-17T16:16:03.701Z,4.57
2018-12-17T16:18:33.176Z,4.67
2018-12-17T16:21:02.992Z,4.30
2018-12-17T16:23:32.597Z,4.30
2018-12-17T16:26:01.936Z,4.63
2018-12-17T16:28:31.410Z,4.37
2018-12-17T16:31:00.719Z,4.10
2018-12-17T16:33:30.263Z,4.30
2018-12-17T16:35:59.684Z,4.27
2018-12-17T16:38:29.107Z,4.43
2018-12-17T16:40:58.442Z,4.13
2018-12-17T16:43:27.772Z,4.30
2018-12-17T16:45:57.141Z,4.40
2018-12-17T16:48:26.479Z,4.33
2018-12-17T16:50:56.541Z,3.77
2018-12-17T16:53:25.978Z,3.40
2018-12-17T16:55:55.361Z,3.50
2018-12-17T16:58:24.817Z,3.50
2018-12-17T17:00:54.146Z,3.53
2018-12-17T17:03:23.471Z,3.47
2018-12-17T17:05:53.191Z,4.00
2018-12-17T17:08:22.545Z,3.10
2018-12-17T17:10:51.819Z,3.87
2018-12-17T17:13:21.162Z,3.73
2018-12-17T17:15:50.499Z,3.77
2018-12-17T17:18:20.547Z,3.57
2018-12-17T17:20:50.213Z,3.83
2018-12-17T17:23:19.667Z,3.83
2018-12-17T17:25:48.994Z,4.10
2018-12-17T17:28:18.314Z,4.03
2018-12-17T17:30:47.673Z,4.47
2018-12-17T17:33:17.098Z,4.07
2018-12-17T17:35:47.616Z,4.37
2018-12-17T17:38:17.686Z,5.53
2018-12-17T17:40:48.220Z,4.87
2018-12-17T17:43:19.872Z,6.07
2018-12-17T17:45:49.372Z,5.50
2018-12-17T17:48:19.351Z,5.17
2018-12-17T17:50:48.827Z,6.90
2018-12-17T17:53:18.319Z,6.57
2018-12-17T17:55:49.041Z,8.00
2018-12-17T17:58:19.159Z,8.00
2018-12-17T18:00:49.066Z,6.63
2018-12-17T18:03:18.444Z,6.57
2018-12-17T18:05:47.791Z,6.80
2018-12-17T18:08:17.283Z,6.77
2018-12-17T18:10:47.697Z,6.23
2018-12-17T18:13:17.067Z,7.07
2018-12-17T18:15:47.015Z,7.03
2018-12-17T18:18:16.975Z,6.80
2018-12-17T18:20:46.659Z,7.17
2018-12-17T18:23:16.219Z,7.00
2018-12-17T18:25:46.006Z,6.27
2018-12-17T18:28:15.441Z,8.03
2018-12-17T18:30:45.739Z,5.87
2018-12-17T18:33:17.769Z,5.90
2018-12-17T18:35:47.119Z,5.90
2018-12-17T18:38:16.647Z,6.77
2018-12-17T18:40:46.556Z,6.57
2018-12-17T18:43:17.286Z,6.60
2018-12-17T18:45:46.994Z,6.67
2018-12-17T18:48:16.465Z,8.00
2018-12-17T18:50:45.829Z,7.70
2018-12-17T18:53:16.354Z,7.13
2018-12-17T18:55:46.935Z,7.73
2018-12-17T18:58:16.298Z,7.60
2018-12-17T19:00:46.627Z,7.13
2018-12-17T19:03:16.852Z,8.23
2018-12-17T19:05:48.022Z,8.10
2018-12-17T19:08:17.349Z,8.83
2018-12-17T19:10:50.741Z,8.67
2018-12-17T19:13:31.505Z,8.93
2018-12-17T19:16:02.528Z,8.50
2018-12-17T19:18:33.464Z,8.90
2018-12-17T19:21:04.508Z,9.43
2018-12-17T19:23:34.232Z,9.70
2018-12-17T19:26:04.034Z,10.23
2018-12-17T19:28:33.581Z,9.60
2018-12-17T19:31:02.927Z,9.23
2018-12-17T19:33:33.202Z,9.57
2018-12-17T19:36:03.540Z,11.13
2018-12-17T19:38:32.939Z,10.40
2018-12-17T19:41:03.733Z,11.10
2018-12-17T19:43:34.619Z,11.77
2018-12-17T19:46:04.796Z,13.10
2018-12-17T19:48:36.014Z,12.40
2018-12-17T19:51:05.996Z,11.57
2018-12-17T19:53:38.032Z,11.37
2018-12-17T19:56:07.459Z,11.70
2018-12-17T19:58:36.924Z,12.47
2018-12-17T20:01:12.249Z,12.50
2018-12-17T20:03:41.630Z,12.97
2018-12-17T20:06:11.525Z,12.33
2018-12-17T20:08:40.860Z,12.97
2018-12-17T20:11:10.182Z,13.20
2018-12-17T20:13:39.566Z,12.50
2018-12-17T20:16:08.956Z,12.60
2018-12-17T20:18:38.258Z,13.73
2018-12-17T20:21:07.689Z,13.17
2018-12-17T20:23:37.093Z,13.80
2018-12-17T20:26:07.306Z,13.43
2018-12-17T20:28:36.743Z,14.00
2018-12-17T20:31:06.323Z,13.30
2018-12-17T20:33:36.180Z,12.50
2018-12-17T20:36:05.544Z,12.83
2018-12-17T20:38:34.929Z,14.17
2018-12-17T20:41:05.072Z,13.10
2018-12-17T20:43:34.410Z,14.03
2018-12-17T20:46:04.083Z,14.83
2018-12-17T20:48:33.533Z,13.83
2018-12-17T20:51:02.895Z,13.57
2018-12-17T20:53:33.637Z,14.73
2018-12-17T20:56:03.229Z,15.23
2018-12-17T20:58:32.546Z,14.73
2018-12-17T21:01:02.109Z,13.83
2018-12-17T21:03:31.569Z,14.33
2018-12-17T21:06:05.753Z,14.90
2018-12-17T21:08:35.058Z,14.17
2018-12-17T21:11:04.414Z,14.80
2018-12-17T21:13:33.834Z,14.73
2018-12-17T21:16:03.288Z,14.70
2018-12-17T21:18:32.726Z,14.77
2018-12-17T21:21:02.144Z,15.97
2018-12-17T21:23:32.258Z,15.83
2018-12-17T21:26:01.738Z,15.80
2018-12-17T21:28:31.435Z,15.67
2018-12-17T21:31:00.822Z,16.00
2018-12-17T21:33:30.112Z,16.30
2018-12-17T21:35:59.528Z,15.50
2018-12-17T21:38:28.983Z,15.03
2018-12-17T21:40:58.421Z,15.10
2018-12-17T21:43:27.870Z,14.93
2018-12-17T21:45:57.273Z,15.67
2018-12-17T21:48:26.592Z,14.70
2018-12-17T21:50:56.065Z,14.80
2018-12-17T21:53:25.414Z,14.47
2018-12-17T21:55:54.817Z,14.87
2018-12-17T21:58:24.203Z,14.80
2018-12-17T22:00:53.628Z,14.10
2018-12-17T22:03:23.080Z,14.27
2018-12-17T22:05:52.373Z,14.93
2018-12-17T22:08:21.786Z,13.33
2018-12-17T22:10:51.161Z,13.87
2018-12-17T22:13:20.645Z,14.03
2018-12-17T22:15:49.953Z,14.03
2018-12-17T22:18:19.403Z,12.73
2018-12-17T22:20:48.927Z,13.50
2018-12-17T22:23:18.297Z,13.23
2018-12-17T22:25:47.605Z,12.33
2018-12-17T22:28:16.935Z,12.37
2018-12-17T22:30:46.280Z,12.60
2018-12-17T22:33:19.692Z,12.40
2018-12-17T22:35:46.929Z,12.50
2018-12-17T22:38:16.316Z,12.77
2018-12-17T22:40:45.727Z,12.70
2018-12-17T22:43:15.027Z,11.73
2018-12-17T22:45:44.332Z,12.57
2018-12-17T22:48:13.677Z,11.53
2018-12-17T22:50:44.111Z,12.63
2018-12-17T22:53:13.388Z,12.47
2018-12-17T22:55:42.660Z,11.47
2018-12-17T22:58:11.943Z,12.17
2018-12-17T23:00:43.993Z,12.73
2018-12-17T23:03:13.296Z,12.60
2018-12-17T23:05:42.942Z,10.90
2018-12-17T23:08:12.245Z,11.43
2018-12-17T23:10:58.224Z,12.50
2018-12-17T23:13:44.257Z,11.17
2018-12-17T23:16:30.375Z,12.17
2018-12-17T23:18:58.153Z,11.10
2018-12-17T23:21:27.688Z,11.53
2018-12-17T23:23:57.254Z,11.60
2018-12-17T23:26:26.578Z,10.57
2018-12-17T23:28:55.935Z,11.13
2018-12-17T23:31:25.282Z,11.00
2018-12-17T23:33:54.837Z,10.83
2018-12-17T23:36:24.269Z,10.17
2018-12-17T23:38:53.608Z,10.03
2018-12-17T23:41:22.911Z,9.43
2018-12-17T23:43:52.239Z,9.40
2018-12-17T23:46:21.535Z,9.03
2018-12-17T23:48:50.809Z,8.57
2018-12-17T23:51:20.719Z,7.97
2018-12-17T23:53:49.992Z,9.13
2018-12-17T23:56:19.362Z,8.17
2018-12-17T23:58:48.765Z,7.47
